Details From MUCC - JARDINES DEL REY
To MUVR - JUAN GUALBERTO GOMEZ INTL
Flight Number -
Tags generated
Created
Modified
Stats Distance 175 nm / 325 km
Max Altitude 14,900 ft / 4,542 m
Waypoints 3
Social Downloads 6
Likes 0
Share VATSIM

Download

Looking for another format? Having issues loading an existing format? Contact us
Advertisement - Login to hide

Notes

Basic altitude profile: - Ascent Rate: 2500ft/min - Ascent Speed: 250kts - Cruise Altitude: 35000ft - Cruise Speed: 420kts - Descent Rate: 1500ft/min - Descent Speed: 250kts

Route

MUCC ISABE MUVR

ID Type Via Altitude Latitude Longitude Leg Dist Tot Dist Heading (true) Name
O MUCC APT - 0 ft / 0 m 22.46094˚ -78.32860˚ - 0 nm - JARDINES DEL REY
ISABE FIX - 14,900 ft / 4,542 m 22.78389˚ -80.11639˚ 100 nm 100 nm 281° / 281° -
O MUVR APT - 0 ft / 0 m 23.03444˚ -81.43527˚ 74 nm 175 nm 282° / 281° JUAN GUALBERTO GOMEZ INTL

Altitude Profile

Advertisement - Login to hide

Weather


0- 5 10 15 20 25 30 35+ Temperature / ° C

Clouds and Precipitation
Forecast for 2017-12-14 18:00 UTC. Updated 19 minutes ago

Ground ~20,000 ft ~40,000 ft Winds

MUCC

Details ICAO MUCC
Name JARDINES DEL REY
Region Cuba
Timezone America/Havana (UTC-5.0)
Stats Elevation 13 ft / 4 m (AMSL)
Location 22.460945° -78.328602°
Runways 1
Magnetic Variation 7.317° W

METAR

MUCC 141651Z 07008KT 040V130 9000 NSC 24/16 Q1018

Decode

TAF

Not found

Departure Runways

ID Width Length Bearing (true) Bearing (mag) Surface Threshold Offset Overrun Length
08 148 ft / 45 m 9,835 ft / 2,998 m 70.91° 78.23° Asphalt 0 ft / 0 m 0 ft / 0 m
26 148 ft / 45 m 9,835 ft / 2,998 m 250.92° 258.24° Asphalt 0 ft / 0 m 0 ft / 0 m

MUVR

Details ICAO MUVR (VRA)
Name JUAN GUALBERTO GOMEZ INTL
Region Cuba
Timezone America/Havana (UTC-5.0)
Stats Elevation 209 ft / 64 m (AMSL)
Location 23.034439° -81.435269°
Runways 1
Magnetic Variation 5.518° W

METAR

MUVR 141650Z 03006KT 340V070 9000 FEW025 22/14 Q1019

Decode

TAF

Not found

Destination Runways

ID Width Length Bearing (true) Bearing (mag) Surface Threshold Offset Overrun Length
06 148 ft / 45 m 11,494 ft / 3,503 m 55.47° 60.99° Asphalt 0 ft / 0 m 197 ft / 60 m
24 148 ft / 45 m 11,494 ft / 3,503 m 235.48° 241.00° Asphalt 0 ft / 0 m 197 ft / 60 m

Approach Navaids

Runway Type Ident Frequency Range Bearing (true) Bearing (mag) Slope Elevation
06 Localiser IVR 111.30 MHz 18 nm / 33 km 55.49° 61.01° - 209 ft / 64 m (AMSL)
06 Glidescope IVR 111.30 MHz 10 nm / 19 km 55.47° 60.99° 3.00° 209 ft / 64 m (AMSL)

Popular Alternatives